sensor_id;sensor_type;location;lat;lon;timestamp;pressure;altitude;pressure_sealevel;temperature;humidity
22333;BME280;11334;36.986;-121.936;2022-07-11T00:00:00;101276.81;;;24.16;52.29
22333;BME280;11334;36.986;-121.936;2022-07-11T00:02:27;101276.88;;;23.99;52.78
22333;BME280;11334;36.986;-121.936;2022-07-11T00:04:53;101276.47;;;23.84;53.22
22333;BME280;11334;36.986;-121.936;2022-07-11T00:07:20;101282.31;;;23.70;53.61
22333;BME280;11334;36.986;-121.936;2022-07-11T00:09:46;101283.13;;;23.70;53.41
22333;BME280;11334;36.986;-121.936;2022-07-11T00:12:12;101271.88;;;23.55;53.98
22333;BME280;11334;36.986;-121.936;2022-07-11T00:14:40;101275.91;;;23.46;53.75
22333;BME280;11334;36.986;-121.936;2022-07-11T00:17:07;101272.59;;;23.27;54.68
22333;BME280;11334;36.986;-121.936;2022-07-11T00:19:35;101269.53;;;23.23;54.70
22333;BME280;11334;36.986;-121.936;2022-07-11T00:22:02;101265.00;;;23.17;54.52
22333;BME280;11334;36.986;-121.936;2022-07-11T00:24:29;101258.56;;;23.01;55.55
22333;BME280;11334;36.986;-121.936;2022-07-11T00:26:55;101256.72;;;22.95;55.61
22333;BME280;11334;36.986;-121.936;2022-07-11T00:29:22;101256.19;;;22.86;55.81
22333;BME280;11334;36.986;-121.936;2022-07-11T00:31:48;101258.75;;;22.82;55.41
22333;BME280;11334;36.986;-121.936;2022-07-11T00:34:14;101261.91;;;22.72;56.23
22333;BME280;11334;36.986;-121.936;2022-07-11T00:36:41;101256.31;;;22.50;56.75
22333;BME280;11334;36.986;-121.936;2022-07-11T00:39:07;101242.63;;;22.45;57.00
22333;BME280;11334;36.986;-121.936;2022-07-11T00:41:34;101254.34;;;22.39;57.15
22333;BME280;11334;36.986;-121.936;2022-07-11T00:44:00;101250.22;;;22.30;57.54
22333;BME280;11334;36.986;-121.936;2022-07-11T00:46:28;101236.56;;;22.25;57.64
22333;BME280;11334;36.986;-121.936;2022-07-11T00:48:55;101244.31;;;22.15;57.87
22333;BME280;11334;36.986;-121.936;2022-07-11T00:51:23;101236.47;;;22.07;58.35
22333;BME280;11334;36.986;-121.936;2022-07-11T00:53:51;101233.16;;;22.05;58.62
22333;BME280;11334;36.986;-121.936;2022-07-11T00:56:20;101227.44;;;21.89;58.83
22333;BME280;11334;36.986;-121.936;2022-07-11T00:58:48;101222.53;;;21.80;59.02
22333;BME280;11334;36.986;-121.936;2022-07-11T01:01:14;101225.47;;;21.72;59.13
22333;BME280;11334;36.986;-121.936;2022-07-11T01:03:41;101219.69;;;21.68;59.20
22333;BME280;11334;36.986;-121.936;2022-07-11T01:06:08;101213.50;;;21.61;59.35
22333;BME280;11334;36.986;-121.936;2022-07-11T01:08:35;101213.78;;;21.47;59.77
22333;BME280;11334;36.986;-121.936;2022-07-11T01:11:02;101208.22;;;21.42;60.32
22333;BME280;11334;36.986;-121.936;2022-07-11T01:13:29;101202.66;;;21.37;60.43
22333;BME280;11334;36.986;-121.936;2022-07-11T01:16:15;101200.34;;;21.34;60.79
22333;BME280;11334;36.986;-121.936;2022-07-11T01:18:46;101197.44;;;21.29;60.95
22333;BME280;11334;36.986;-121.936;2022-07-11T01:21:30;101201.00;;;21.30;60.70
22333;BME280;11334;36.986;-121.936;2022-07-11T01:23:58;101194.56;;;21.24;60.97
22333;BME280;11334;36.986;-121.936;2022-07-11T01:26:25;101187.09;;;21.26;60.80
22333;BME280;11334;36.986;-121.936;2022-07-11T01:28:53;101192.91;;;21.23;61.26
22333;BME280;11334;36.986;-121.936;2022-07-11T01:31:21;101187.34;;;21.19;61.64
22333;BME280;11334;36.986;-121.936;2022-07-11T01:33:47;101186.34;;;21.07;61.70
22333;BME280;11334;36.986;-121.936;2022-07-11T01:36:13;101187.00;;;20.96;61.80
22333;BME280;11334;36.986;-121.936;2022-07-11T01:38:40;101183.69;;;20.94;62.49
22333;BME280;11334;36.986;-121.936;2022-07-11T01:41:06;101178.31;;;20.94;62.49
22333;BME280;11334;36.986;-121.936;2022-07-11T01:43:33;101182.06;;;20.93;62.45
22333;BME280;11334;36.986;-121.936;2022-07-11T01:45:59;101184.56;;;20.88;62.53
22333;BME280;11334;36.986;-121.936;2022-07-11T01:48:25;101177.72;;;20.79;62.72
22333;BME280;11334;36.986;-121.936;2022-07-11T01:50:52;101183.13;;;20.79;62.46
22333;BME280;11334;36.986;-121.936;2022-07-11T01:53:18;101179.00;;;20.70;62.79
22333;BME280;11334;36.986;-121.936;2022-07-11T01:55:44;101177.97;;;20.65;63.33
22333;BME280;11334;36.986;-121.936;2022-07-11T01:58:11;101185.22;;;20.58;63.15
22333;BME280;11334;36.986;-121.936;2022-07-11T02:00:37;101178.78;;;20.53;63.46
22333;BME280;11334;36.986;-121.936;2022-07-11T02:03:03;101177.97;;;20.52;63.53
22333;BME280;11334;36.986;-121.936;2022-07-11T02:05:30;101183.34;;;20.46;63.61
22333;BME280;11334;36.986;-121.936;2022-07-11T02:07:56;101176.31;;;20.45;63.10
22333;BME280;11334;36.986;-121.936;2022-07-11T02:10:39;101179.44;;;20.42;63.13
22333;BME280;11334;36.986;-121.936;2022-07-11T02:13:06;101172.19;;;20.36;63.71
22333;BME280;11334;36.986;-121.936;2022-07-11T02:15:32;101179.66;;;20.34;64.00
22333;BME280;11334;36.986;-121.936;2022-07-11T02:17:58;101175.31;;;20.27;64.30
22333;BME280;11334;36.986;-121.936;2022-07-11T02:20:24;101170.75;;;20.27;64.25
22333;BME280;11334;36.986;-121.936;2022-07-11T02:22:51;101174.47;;;20.26;64.53
22333;BME280;11334;36.986;-121.936;2022-07-11T02:25:18;101173.00;;;20.24;64.56
22333;BME280;11334;36.986;-121.936;2022-07-11T02:27:45;101162.25;;;20.24;64.46
22333;BME280;11334;36.986;-121.936;2022-07-11T02:30:11;101173.84;;;20.18;64.77
22333;BME280;11334;36.986;-121.936;2022-07-11T02:32:37;101168.28;;;20.19;64.80
22333;BME280;11334;36.986;-121.936;2022-07-11T02:35:05;101174.91;;;20.10;65.16
22333;BME280;11334;36.986;-121.936;2022-07-11T02:37:31;101174.50;;;20.07;65.39
22333;BME280;11334;36.986;-121.936;2022-07-11T02:39:58;101173.66;;;20.00;65.52
22333;BME280;11334;36.986;-121.936;2022-07-11T02:42:24;101179.44;;;20.03;65.83
22333;BME280;11334;36.986;-121.936;2022-07-11T02:44:50;101180.69;;;19.95;66.01
22333;BME280;11334;36.986;-121.936;2022-07-11T02:47:16;101171.56;;;19.95;65.93
22333;BME280;11334;36.986;-121.936;2022-07-11T02:49:42;101178.81;;;19.95;65.98
22333;BME280;11334;36.986;-121.936;2022-07-11T02:52:09;101176.97;;;19.89;66.30
22333;BME280;11334;36.986;-121.936;2022-07-11T02:54:36;101170.16;;;19.87;66.26
22333;BME280;11334;36.986;-121.936;2022-07-11T02:57:03;101166.81;;;19.85;66.77
22333;BME280;11334;36.986;-121.936;2022-07-11T02:59:29;101171.78;;;19.81;67.00
22333;BME280;11334;36.986;-121.936;2022-07-11T03:01:55;101172.81;;;19.80;67.09
22333;BME280;11334;36.986;-121.936;2022-07-11T03:04:22;101168.66;;;19.78;66.60
22333;BME280;11334;36.986;-121.936;2022-07-11T03:06:48;101170.06;;;19.74;66.90
22333;BME280;11334;36.986;-121.936;2022-07-11T03:09:14;101168.22;;;19.68;67.23
22333;BME280;11334;36.986;-121.936;2022-07-11T03:11:41;101170.88;;;19.55;67.48
22333;BME280;11334;36.986;-121.936;2022-07-11T03:14:08;101170.66;;;19.57;67.40
22333;BME280;11334;36.986;-121.936;2022-07-11T03:16:34;101164.47;;;19.56;67.56
22333;BME280;11334;36.986;-121.936;2022-07-11T03:19:01;101171.91;;;19.54;67.42
22333;BME280;11334;36.986;-121.936;2022-07-11T03:21:27;101172.91;;;19.47;67.63
22333;BME280;11334;36.986;-121.936;2022-07-11T03:23:53;101171.69;;;19.49;67.58
22333;BME280;11334;36.986;-121.936;2022-07-11T03:26:19;101177.69;;;19.45;67.86
22333;BME280;11334;36.986;-121.936;2022-07-11T03:28:46;101178.06;;;19.42;67.92
22333;BME280;11334;36.986;-121.936;2022-07-11T03:31:12;101181.16;;;19.39;68.11
22333;BME280;11334;36.986;-121.936;2022-07-11T03:33:38;101184.66;;;19.33;68.24
22333;BME280;11334;36.986;-121.936;2022-07-11T03:36:05;101174.75;;;19.33;68.08
22333;BME280;11334;36.986;-121.936;2022-07-11T03:38:31;101173.09;;;19.32;68.43
22333;BME280;11334;36.986;-121.936;2022-07-11T03:40:57;101178.44;;;19.26;68.75
22333;BME280;11334;36.986;-121.936;2022-07-11T03:43:23;101179.25;;;19.27;68.50
22333;BME280;11334;36.986;-121.936;2022-07-11T03:45:49;101180.72;;;19.23;68.69
22333;BME280;11334;36.986;-121.936;2022-07-11T03:48:16;101183.41;;;19.23;68.99
22333;BME280;11334;36.986;-121.936;2022-07-11T03:50:42;101178.81;;;19.17;68.86
22333;BME280;11334;36.986;-121.936;2022-07-11T03:53:08;101178.81;;;19.17;69.33
22333;BME280;11334;36.986;-121.936;2022-07-11T03:55:34;101193.69;;;19.13;69.17
22333;BME280;11334;36.986;-121.936;2022-07-11T03:58:02;101187.88;;;19.09;69.47
22333;BME280;11334;36.986;-121.936;2022-07-11T04:00:29;101196.97;;;19.08;69.25
22333;BME280;11334;36.986;-121.936;2022-07-11T04:02:55;101193.47;;;19.08;69.52
22333;BME280;11334;36.986;-121.936;2022-07-11T04:05:21;101195.28;;;19.07;69.15
22333;BME280;11334;36.986;-121.936;2022-07-11T04:07:47;101190.75;;;19.01;68.92
22333;BME280;11334;36.986;-121.936;2022-07-11T04:10:14;101192.38;;;18.96;69.29
22333;BME280;11334;36.986;-121.936;2022-07-11T04:12:41;101195.69;;;18.98;69.24
22333;BME280;11334;36.986;-121.936;2022-07-11T04:15:08;101197.94;;;18.95;68.99
22333;BME280;11334;36.986;-121.936;2022-07-11T04:17:34;101201.38;;;18.89;69.03
22333;BME280;11334;36.986;-121.936;2022-07-11T04:20:01;101198.47;;;18.84;69.79
22333;BME280;11334;36.986;-121.936;2022-07-11T04:22:28;101196.81;;;18.83;69.55
22333;BME280;11334;36.986;-121.936;2022-07-11T04:24:54;101200.72;;;18.80;69.99
22333;BME280;11334;36.986;-121.936;2022-07-11T04:27:20;101195.97;;;18.82;69.89
22333;BME280;11334;36.986;-121.936;2022-07-11T04:29:47;101198.47;;;18.84;70.07
22333;BME280;11334;36.986;-121.936;2022-07-11T04:32:13;101199.28;;;18.84;70.64
22333;BME280;11334;36.986;-121.936;2022-07-11T04:34:39;101192.91;;;18.85;70.70
22333;BME280;11334;36.986;-121.936;2022-07-11T04:37:05;101195.94;;;18.76;70.79
22333;BME280;11334;36.986;-121.936;2022-07-11T04:39:31;101202.97;;;18.77;70.79
22333;BME280;11334;36.986;-121.936;2022-07-11T04:41:58;101200.69;;;18.74;70.39
22333;BME280;11334;36.986;-121.936;2022-07-11T04:44:30;101199.84;;;18.73;70.72
22333;BME280;11334;36.986;-121.936;2022-07-11T04:46:57;101195.31;;;18.74;70.62
22333;BME280;11334;36.986;-121.936;2022-07-11T04:49:23;101200.88;;;18.72;70.83
22333;BME280;11334;36.986;-121.936;2022-07-11T04:51:49;101203.56;;;18.72;70.23
22333;BME280;11334;36.986;-121.936;2022-07-11T04:54:15;101206.16;;;18.60;70.80
22333;BME280;11334;36.986;-121.936;2022-07-11T04:56:42;101195.81;;;18.57;71.24
22333;BME280;11334;36.986;-121.936;2022-07-11T04:59:08;101206.97;;;18.54;71.46
22333;BME280;11334;36.986;-121.936;2022-07-11T05:01:34;101200.56;;;18.55;71.53
22333;BME280;11334;36.986;-121.936;2022-07-11T05:04:01;101192.50;;;18.55;71.37
22333;BME280;11334;36.986;-121.936;2022-07-11T05:06:27;101199.53;;;18.56;71.44
22333;BME280;11334;36.986;-121.936;2022-07-11T05:08:54;101192.09;;;18.58;71.15
22333;BME280;11334;36.986;-121.936;2022-07-11T05:11:20;101191.63;;;18.48;71.49
22333;BME280;11334;36.986;-121.936;2022-07-11T05:13:47;101193.72;;;18.52;71.11
22333;BME280;11334;36.986;-121.936;2022-07-11T05:16:13;101202.00;;;18.51;71.20
22333;BME280;11334;36.986;-121.936;2022-07-11T05:18:39;101205.09;;;18.54;71.24
22333;BME280;11334;36.986;-121.936;2022-07-11T05:21:05;101204.28;;;18.54;71.04
22333;BME280;11334;36.986;-121.936;2022-07-11T05:23:32;101196.22;;;18.54;70.89
22333;BME280;11334;36.986;-121.936;2022-07-11T05:25:58;101203.22;;;18.55;70.68
22333;BME280;11334;36.986;-121.936;2022-07-11T05:28:24;101200.88;;;18.45;70.98
22333;BME280;11334;36.986;-121.936;2022-07-11T05:30:50;101193.69;;;18.46;70.87
22333;BME280;11334;36.986;-121.936;2022-07-11T05:33:16;101191.00;;;18.46;71.26
22333;BME280;11334;36.986;-121.936;2022-07-11T05:35:42;101192.25;;;18.50;71.12
22333;BME280;11334;36.986;-121.936;2022-07-11T05:38:09;101190.78;;;18.47;71.32
22333;BME280;11334;36.986;-121.936;2022-07-11T05:40:35;101191.19;;;18.44;71.31
22333;BME280;11334;36.986;-121.936;2022-07-11T05:43:02;101194.06;;;18.43;71.50
22333;BME280;11334;36.986;-121.936;2022-07-11T05:45:28;101192.81;;;18.39;71.27
22333;BME280;11334;36.986;-121.936;2022-07-11T05:47:54;101188.09;;;18.41;70.89
22333;BME280;11334;36.986;-121.936;2022-07-11T05:50:21;101189.06;;;18.34;71.60
22333;BME280;11334;36.986;-121.936;2022-07-11T05:52:47;101196.47;;;18.32;71.39
22333;BME280;11334;36.986;-121.936;2022-07-11T05:55:13;101191.50;;;18.29;71.69
22333;BME280;11334;36.986;-121.936;2022-07-11T05:57:39;101186.56;;;18.32;71.84
22333;BME280;11334;36.986;-121.936;2022-07-11T06:00:06;101186.31;;;18.27;71.71
22333;BME280;11334;36.986;-121.936;2022-07-11T06:02:32;101192.31;;;18.29;72.01
22333;BME280;11334;36.986;-121.936;2022-07-11T06:04:59;101184.47;;;18.28;72.04
22333;BME280;11334;36.986;-121.936;2022-07-11T06:07:25;101181.75;;;18.21;72.12
22333;BME280;11334;36.986;-121.936;2022-07-11T06:10:10;101180.72;;;18.22;72.05
22333;BME280;11334;36.986;-121.936;2022-07-11T06:12:36;101182.97;;;18.19;71.97
22333;BME280;11334;36.986;-121.936;2022-07-11T06:15:02;101177.97;;;18.16;72.45
22333;BME280;11334;36.986;-121.936;2022-07-11T06:17:29;101180.72;;;18.22;71.91
22333;BME280;11334;36.986;-121.936;2022-07-11T06:19:55;101183.78;;;18.19;72.43
22333;BME280;11334;36.986;-121.936;2022-07-11T06:22:21;101176.97;;;18.23;71.89
22333;BME280;11334;36.986;-121.936;2022-07-11T06:24:47;101163.56;;;18.23;72.16
22333;BME280;11334;36.986;-121.936;2022-07-11T06:27:13;101163.38;;;18.25;72.16
22333;BME280;11334;36.986;-121.936;2022-07-11T06:29:39;101158.22;;;18.23;71.97
22333;BME280;11334;36.986;-121.936;2022-07-11T06:32:06;101150.78;;;18.19;71.87
22333;BME280;11334;36.986;-121.936;2022-07-11T06:34:32;101149.91;;;18.18;71.74
22333;BME280;11334;36.986;-121.936;2022-07-11T06:36:59;101157.59;;;18.21;71.38
22333;BME280;11334;36.986;-121.936;2022-07-11T06:39:27;101151.00;;;18.24;71.58
22333;BME280;11334;36.986;-121.936;2022-07-11T06:41:53;101151.59;;;18.19;71.43
22333;BME280;11334;36.986;-121.936;2022-07-11T06:44:20;101156.66;;;18.08;72.04
22333;BME280;11334;36.986;-121.936;2022-07-11T06:46:46;101155.81;;;18.07;71.32
22333;BME280;11334;36.986;-121.936;2022-07-11T06:49:14;101150.88;;;18.11;71.18
22333;BME280;11334;36.986;-121.936;2022-07-11T06:51:40;101144.28;;;18.07;71.12
22333;BME280;11334;36.986;-121.936;2022-07-11T06:54:06;101149.53;;;18.01;71.29
22333;BME280;11334;36.986;-121.936;2022-07-11T06:56:32;101141.25;;;17.96;71.50
22333;BME280;11334;36.986;-121.936;2022-07-11T06:58:59;101143.75;;;17.97;71.55
22333;BME280;11334;36.986;-121.936;2022-07-11T07:01:25;101139.78;;;17.93;71.51
22333;BME280;11334;36.986;-121.936;2022-07-11T07:03:51;101140.59;;;17.94;71.97
22333;BME280;11334;36.986;-121.936;2022-07-11T07:06:17;101138.28;;;17.84;71.69
22333;BME280;11334;36.986;-121.936;2022-07-11T07:08:44;101134.00;;;17.90;71.80
22333;BME280;11334;36.986;-121.936;2022-07-11T07:11:11;101136.72;;;17.96;71.76
22333;BME280;11334;36.986;-121.936;2022-07-11T07:13:37;101122.22;;;17.91;71.64
22333;BME280;11334;36.986;-121.936;2022-07-11T07:16:04;101130.91;;;17.93;71.87
22333;BME280;11334;36.986;-121.936;2022-07-11T07:18:32;101137.94;;;17.94;71.63
22333;BME280;11334;36.986;-121.936;2022-07-11T07:20:58;101129.06;;;17.93;71.81
22333;BME280;11334;36.986;-121.936;2022-07-11T07:23:25;101115.63;;;17.87;71.74
22333;BME280;11334;36.986;-121.936;2022-07-11T07:25:51;101111.06;;;17.87;71.76
22333;BME280;11334;36.986;-121.936;2022-07-11T07:28:17;101106.94;;;17.85;71.72
22333;BME280;11334;36.986;-121.936;2022-07-11T07:30:44;101105.16;;;17.71;71.93
22333;BME280;11334;36.986;-121.936;2022-07-11T07:33:11;101102.72;;;17.76;71.77
22333;BME280;11334;36.986;-121.936;2022-07-11T07:35:38;101105.13;;;17.65;71.61
22333;BME280;11334;36.986;-121.936;2022-07-11T07:38:04;101098.56;;;17.73;71.35
22333;BME280;11334;36.986;-121.936;2022-07-11T07:40:31;101098.97;;;17.71;70.83
22333;BME280;11334;36.986;-121.936;2022-07-11T07:42:57;101090.94;;;17.71;70.37
22333;BME280;11334;36.986;-121.936;2022-07-11T07:45:23;101082.06;;;17.70;70.19
22333;BME280;11334;36.986;-121.936;2022-07-11T07:47:50;101086.78;;;17.68;70.20
22333;BME280;11334;36.986;-121.936;2022-07-11T07:50:16;101082.00;;;17.64;70.18
22333;BME280;11334;36.986;-121.936;2022-07-11T07:52:42;101073.09;;;17.57;70.14
22333;BME280;11334;36.986;-121.936;2022-07-11T07:55:08;101075.13;;;17.55;69.73
22333;BME280;11334;36.986;-121.936;2022-07-11T07:57:35;101064.16;;;17.50;69.86
22333;BME280;11334;36.986;-121.936;2022-07-11T08:00:03;101064.56;;;17.47;69.49
22333;BME280;11334;36.986;-121.936;2022-07-11T08:02:48;101057.72;;;17.44;69.47
22333;BME280;11334;36.986;-121.936;2022-07-11T08:05:17;101056.91;;;17.23;69.80
22333;BME280;11334;36.986;-121.936;2022-07-11T08:07:44;101053.31;;;17.16;70.06
22333;BME280;11334;36.986;-121.936;2022-07-11T08:10:10;101056.91;;;17.23;69.72
22333;BME280;11334;36.986;-121.936;2022-07-11T08:12:37;101063.34;;;17.29;69.67
22333;BME280;11334;36.986;-121.936;2022-07-11T08:15:03;101052.38;;;17.24;69.46
22333;BME280;11334;36.986;-121.936;2022-07-11T08:17:30;101054.78;;;17.19;69.60
22333;BME280;11334;36.986;-121.936;2022-07-11T08:19:56;101053.88;;;17.12;69.71
22333;BME280;11334;36.986;-121.936;2022-07-11T08:22:22;101048.78;;;17.17;69.23
22333;BME280;11334;36.986;-121.936;2022-07-11T08:24:48;101048.53;;;17.12;69.43
22333;BME280;11334;36.986;-121.936;2022-07-11T08:27:15;101048.56;;;16.98;69.49
22333;BME280;11334;36.986;-121.936;2022-07-11T08:29:41;101049.31;;;16.92;69.91
22333;BME280;11334;36.986;-121.936;2022-07-11T08:32:07;101040.06;;;16.94;69.55
22333;BME280;11334;36.986;-121.936;2022-07-11T08:34:33;101032.03;;;16.94;69.38
22333;BME280;11334;36.986;-121.936;2022-07-11T08:36:59;101030.84;;;16.97;69.06
22333;BME280;11334;36.986;-121.936;2022-07-11T08:39:26;101032.88;;;16.95;69.37
22333;BME280;11334;36.986;-121.936;2022-07-11T08:41:52;101032.16;;;16.86;69.50
22333;BME280;11334;36.986;-121.936;2022-07-11T08:44:20;101020.81;;;16.84;69.50
22333;BME280;11334;36.986;-121.936;2022-07-11T08:46:47;101025.13;;;16.65;70.16
22333;BME280;11334;36.986;-121.936;2022-07-11T08:49:14;101028.19;;;16.62;70.40
22333;BME280;11334;36.986;-121.936;2022-07-11T08:51:41;101022.84;;;16.62;70.21
22333;BME280;11334;36.986;-121.936;2022-07-11T08:54:07;101018.38;;;16.69;70.38
22333;BME280;11334;36.986;-121.936;2022-07-11T08:56:34;101013.31;;;16.74;70.05
22333;BME280;11334;36.986;-121.936;2022-07-11T08:59:03;101020.81;;;16.64;70.36
22333;BME280;11334;36.986;-121.936;2022-07-11T09:01:31;101021.63;;;16.64;70.22
22333;BME280;11334;36.986;-121.936;2022-07-11T09:03:59;101006.47;;;16.71;70.07
22333;BME280;11334;36.986;-121.936;2022-07-11T09:06:26;101020.69;;;16.72;69.97
22333;BME280;11334;36.986;-121.936;2022-07-11T09:08:57;101026.59;;;16.67;69.87
22333;BME280;11334;36.986;-121.936;2022-07-11T09:11:24;101020.72;;;16.57;70.37
22333;BME280;11334;36.986;-121.936;2022-07-11T09:13:50;101017.59;;;16.54;70.08
22333;BME280;11334;36.986;-121.936;2022-07-11T09:16:17;101023.06;;;16.46;70.42
22333;BME280;11334;36.986;-121.936;2022-07-11T09:18:47;101015.16;;;16.38;71.06
22333;BME280;11334;36.986;-121.936;2022-07-11T09:21:14;101009.59;;;16.40;70.96
22333;BME280;11334;36.986;-121.936;2022-07-11T09:24:01;101018.28;;;16.42;71.10
22333;BME280;11334;36.986;-121.936;2022-07-11T09:26:48;101015.59;;;16.42;70.96
22333;BME280;11334;36.986;-121.936;2022-07-11T09:29:19;101013.34;;;16.45;70.81
22333;BME280;11334;36.986;-121.936;2022-07-11T09:31:47;101005.53;;;16.44;70.81
22333;BME280;11334;36.986;-121.936;2022-07-11T09:34:21;101008.84;;;16.45;70.68
22333;BME280;11334;36.986;-121.936;2022-07-11T09:36:53;101010.50;;;16.46;70.48
22333;BME280;11334;36.986;-121.936;2022-07-11T09:39:27;101015.38;;;16.43;70.56
22333;BME280;11334;36.986;-121.936;2022-07-11T09:41:54;101006.09;;;16.39;70.83
22333;BME280;11334;36.986;-121.936;2022-07-11T09:46:52;101004.34;;;16.32;71.52
22333;BME280;11334;36.986;-121.936;2022-07-11T09:49:35;101006.22;;;16.31;71.52
22333;BME280;11334;36.986;-121.936;2022-07-11T09:52:10;101002.06;;;16.29;71.50
22333;BME280;11334;36.986;-121.936;2022-07-11T09:54:55;101004.53;;;16.30;71.59
22333;BME280;11334;36.986;-121.936;2022-07-11T09:57:36;100994.47;;;16.32;71.31
22333;BME280;11334;36.986;-121.936;2022-07-11T10:00:10;101004.19;;;16.33;71.43
22333;BME280;11334;36.986;-121.936;2022-07-11T10:02:39;101004.34;;;16.32;71.75
22333;BME280;11334;36.986;-121.936;2022-07-11T10:05:06;101002.41;;;16.40;71.47
22333;BME280;11334;36.986;-121.936;2022-07-11T10:07:33;100999.34;;;16.43;71.68
22333;BME280;11334;36.986;-121.936;2022-07-11T10:10:01;100995.84;;;16.43;71.63
22333;BME280;11334;36.986;-121.936;2022-07-11T10:12:28;100998.50;;;16.43;71.95
22333;BME280;11334;36.986;-121.936;2022-07-11T10:15:00;100996.09;;;16.47;72.34
22333;BME280;11334;36.986;-121.936;2022-07-11T10:20:15;100980.44;;;16.44;72.91
22333;BME280;11334;36.986;-121.936;2022-07-11T10:30:50;100991.16;;;16.65;73.66
22333;BME280;11334;36.986;-121.936;2022-07-11T10:33:18;100996.34;;;16.67;74.21
22333;BME280;11334;36.986;-121.936;2022-07-11T10:35:49;100992.06;;;16.72;74.37
22333;BME280;11334;36.986;-121.936;2022-07-11T10:38:16;100993.84;;;16.65;75.04
22333;BME280;11334;36.986;-121.936;2022-07-11T10:40:59;100997.69;;;16.77;75.33
22333;BME280;11334;36.986;-121.936;2022-07-11T10:43:32;100993.78;;;16.79;75.41
22333;BME280;11334;36.986;-121.936;2022-07-11T10:46:10;100990.69;;;16.76;75.61
22333;BME280;11334;36.986;-121.936;2022-07-11T10:51:34;100997.38;;;16.86;75.42
22333;BME280;11334;36.986;-121.936;2022-07-11T10:54:27;101003.81;;;16.92;75.89
22333;BME280;11334;36.986;-121.936;2022-07-11T10:57:04;101008.34;;;16.91;76.10
22333;BME280;11334;36.986;-121.936;2022-07-11T10:59:34;101004.28;;;16.95;76.25
22333;BME280;11334;36.986;-121.936;2022-07-11T11:02:09;101000.56;;;16.96;76.33
22333;BME280;11334;36.986;-121.936;2022-07-11T11:04:56;101008.41;;;16.98;76.41
22333;BME280;11334;36.986;-121.936;2022-07-11T11:07:33;101006.56;;;16.98;76.51
22333;BME280;11334;36.986;-121.936;2022-07-11T11:10:44;101008.03;;;17.01;76.53
22333;BME280;11334;36.986;-121.936;2022-07-11T11:15:55;101010.56;;;17.08;76.75
22333;BME280;11334;36.986;-121.936;2022-07-11T11:23:36;101009.75;;;17.08;77.67
22333;BME280;11334;36.986;-121.936;2022-07-11T11:26:14;101015.56;;;17.11;77.96
22333;BME280;11334;36.986;-121.936;2022-07-11T11:29:05;101010.47;;;17.16;78.22
22333;BME280;11334;36.986;-121.936;2022-07-11T11:31:31;101013.78;;;17.18;78.44
22333;BME280;11334;36.986;-121.936;2022-07-11T11:34:00;101011.28;;;17.17;78.75
22333;BME280;11334;36.986;-121.936;2022-07-11T11:36:28;101004.94;;;17.18;79.42
22333;BME280;11334;36.986;-121.936;2022-07-11T11:38:55;101016.91;;;17.22;78.93
22333;BME280;11334;36.986;-121.936;2022-07-11T11:41:26;101014.63;;;17.19;79.47
22333;BME280;11334;36.986;-121.936;2022-07-11T11:43:54;101002.03;;;17.19;79.47
22333;BME280;11334;36.986;-121.936;2022-07-11T11:46:28;101013.41;;;17.21;79.21
22333;BME280;11334;36.986;-121.936;2022-07-11T11:48:56;101016.91;;;17.22;79.05
22333;BME280;11334;36.986;-121.936;2022-07-11T11:51:24;101015.34;;;17.27;78.85
22333;BME280;11334;36.986;-121.936;2022-07-11T11:53:54;101009.50;;;17.24;78.99
22333;BME280;11334;36.986;-121.936;2022-07-11T11:56:33;101000.09;;;17.28;78.84
22333;BME280;11334;36.986;-121.936;2022-07-11T11:59:04;101006.19;;;17.22;79.27
22333;BME280;11334;36.986;-121.936;2022-07-11T12:01:34;101004.97;;;17.24;79.22
22333;BME280;11334;36.986;-121.936;2022-07-11T12:04:01;101004.78;;;17.26;78.91
22333;BME280;11334;36.986;-121.936;2022-07-11T12:06:33;101003.34;;;17.23;78.63
22333;BME280;11334;36.986;-121.936;2022-07-11T12:09:07;101001.03;;;17.20;78.62
22333;BME280;11334;36.986;-121.936;2022-07-11T12:11:36;100998.78;;;17.24;78.67
22333;BME280;11334;36.986;-121.936;2022-07-11T12:14:04;101008.25;;;17.20;78.43
22333;BME280;11334;36.986;-121.936;2022-07-11T12:16:34;101017.94;;;17.21;78.40
22333;BME280;11334;36.986;-121.936;2022-07-11T12:19:13;101010.72;;;17.21;78.38
22333;BME280;11334;36.986;-121.936;2022-07-11T12:21:42;101012.41;;;17.22;77.91
22333;BME280;11334;36.986;-121.936;2022-07-11T12:24:15;101011.53;;;17.22;77.85
22333;BME280;11334;36.986;-121.936;2022-07-11T12:26:42;101018.13;;;17.19;77.92
22333;BME280;11334;36.986;-121.936;2022-07-11T12:29:10;101014.81;;;17.17;77.92
22333;BME280;11334;36.986;-121.936;2022-07-11T12:31:47;101015.19;;;17.14;77.75
22333;BME280;11334;36.986;-121.936;2022-07-11T12:34:18;101016.03;;;17.15;77.76
22333;BME280;11334;36.986;-121.936;2022-07-11T12:36:45;101012.03;;;17.11;77.59
22333;BME280;11334;36.986;-121.936;2022-07-11T12:39:25;101016.41;;;17.12;77.78
22333;BME280;11334;36.986;-121.936;2022-07-11T12:41:53;101023.78;;;17.10;77.61
22333;BME280;11334;36.986;-121.936;2022-07-11T12:44:28;101018.59;;;17.08;77.64
22333;BME280;11334;36.986;-121.936;2022-07-11T12:47:14;101019.25;;;17.10;77.42
22333;BME280;11334;36.986;-121.936;2022-07-11T12:49:41;101016.41;;;17.12;77.13